createdAt,value
2018-09-02T00:01:46.584Z,17.30
2018-09-02T00:04:14.918Z,17.30
2018-09-02T00:06:43.215Z,17.30
2018-09-02T00:09:11.617Z,17.20
2018-09-02T00:11:39.886Z,17.30
2018-09-02T00:14:08.260Z,17.20
2018-09-02T00:16:38.142Z,17.20
2018-09-02T00:19:06.506Z,17.20
2018-09-02T00:21:34.851Z,17.20
2018-09-02T00:24:03.227Z,17.10
2018-09-02T00:26:31.538Z,17.10
2018-09-02T00:29:00.133Z,17.10
2018-09-02T00:31:28.567Z,17.00
2018-09-02T00:33:56.934Z,17.00
2018-09-02T00:36:25.307Z,17.00
2018-09-02T00:38:53.696Z,16.90
2018-09-02T00:41:22.119Z,16.90
2018-09-02T00:43:50.545Z,16.90
2018-09-02T00:46:18.827Z,16.80
2018-09-02T00:48:47.517Z,16.80
2018-09-02T00:51:17.370Z,16.80
2018-09-02T00:53:45.720Z,16.80
2018-09-02T00:56:14.474Z,16.70
2018-09-02T00:58:42.843Z,16.70
2018-09-02T01:01:11.423Z,16.70
2018-09-02T01:03:39.755Z,16.70
2018-09-02T01:06:08.042Z,16.70
2018-09-02T01:08:36.859Z,16.70
2018-09-02T01:11:05.160Z,16.70
2018-09-02T01:13:33.564Z,16.70
2018-09-02T01:16:02.109Z,16.70
2018-09-02T01:18:30.404Z,16.70
2018-09-02T01:20:58.703Z,16.70
2018-09-02T01:23:27.039Z,16.70
2018-09-02T01:25:55.333Z,16.70
2018-09-02T01:28:23.716Z,16.70
2018-09-02T01:30:52.027Z,16.60
2018-09-02T01:33:20.329Z,16.60
2018-09-02T01:35:48.632Z,16.60
2018-09-02T01:38:16.943Z,16.60
2018-09-02T01:40:45.248Z,16.60
2018-09-02T01:43:13.770Z,16.50
2018-09-02T01:45:42.075Z,16.50
2018-09-02T01:48:10.406Z,16.50
2018-09-02T01:50:38.703Z,16.50
2018-09-02T01:53:07.019Z,16.40
2018-09-02T01:55:35.336Z,16.40
2018-09-02T01:58:03.641Z,16.40
2018-09-02T02:00:32.022Z,16.30
2018-09-02T02:03:00.283Z,16.30
2018-09-02T02:05:28.658Z,16.30
2018-09-02T02:07:56.976Z,16.30
2018-09-02T02:10:25.272Z,16.20
2018-09-02T02:12:53.590Z,16.20
2018-09-02T02:15:21.918Z,16.20
2018-09-02T02:17:50.220Z,16.20
2018-09-02T02:20:18.531Z,16.10
2018-09-02T02:22:46.831Z,16.10
2018-09-02T02:25:15.143Z,16.10
2018-09-02T02:27:43.455Z,16.00
2018-09-02T02:30:11.796Z,16.00
2018-09-02T02:32:40.114Z,16.00
2018-09-02T02:35:08.499Z,16.00
2018-09-02T02:37:36.799Z,16.00
2018-09-02T02:40:05.100Z,16.00
2018-09-02T02:42:33.433Z,15.90
2018-09-02T02:45:01.743Z,15.90
2018-09-02T02:47:30.152Z,15.90
2018-09-02T02:49:58.473Z,15.80
2018-09-02T02:52:33.023Z,15.80
2018-09-02T02:55:01.403Z,15.80
2018-09-02T02:57:29.695Z,15.80
2018-09-02T02:59:58.012Z,15.80
2018-09-02T03:02:26.340Z,15.70
2018-09-02T03:04:54.633Z,15.70
2018-09-02T03:07:22.917Z,15.70
2018-09-02T03:09:51.218Z,15.70
2018-09-02T03:12:19.580Z,15.70
2018-09-02T03:14:47.918Z,15.70
2018-09-02T03:17:16.209Z,15.70
2018-09-02T03:19:44.548Z,15.70
2018-09-02T03:22:13.358Z,15.60
2018-09-02T03:24:41.742Z,15.60
2018-09-02T03:27:10.090Z,15.60
2018-09-02T03:29:38.403Z,15.60
2018-09-02T03:32:06.862Z,15.60
2018-09-02T03:34:35.168Z,15.50
2018-09-02T03:37:03.499Z,15.40
2018-09-02T03:39:31.866Z,15.40
2018-09-02T03:42:00.217Z,15.40
2018-09-02T03:44:28.578Z,15.40
2018-09-02T03:46:56.888Z,15.40
2018-09-02T03:49:25.181Z,15.40
2018-09-02T03:51:53.520Z,15.30
2018-09-02T03:54:21.815Z,15.30
2018-09-02T03:56:50.161Z,15.30
2018-09-02T03:59:18.443Z,15.30
2018-09-02T04:01:46.771Z,15.30
2018-09-02T04:04:15.063Z,15.30
2018-09-02T04:06:43.424Z,15.30
2018-09-02T04:09:12.154Z,15.30
2018-09-02T04:11:41.076Z,15.30
2018-09-02T04:14:09.363Z,15.30
2018-09-02T04:16:37.777Z,15.20
2018-09-02T04:19:06.172Z,15.20
2018-09-02T04:21:34.792Z,15.10
2018-09-02T04:24:03.420Z,15.20
2018-09-02T04:26:31.750Z,15.20
2018-09-02T04:29:00.157Z,15.30
2018-09-02T04:31:28.454Z,15.30
2018-09-02T04:33:56.784Z,15.20
2018-09-02T04:36:25.160Z,15.20
2018-09-02T04:38:53.578Z,15.20
2018-09-02T04:41:22.059Z,15.20
2018-09-02T04:43:52.605Z,15.20
2018-09-02T04:46:21.044Z,15.30
2018-09-02T04:48:49.381Z,15.30
2018-09-02T04:51:17.747Z,15.30
2018-09-02T04:53:47.144Z,15.30
2018-09-02T04:56:15.746Z,15.30
2018-09-02T04:58:44.316Z,15.40
2018-09-02T05:01:12.833Z,15.40
2018-09-02T05:03:42.960Z,15.40
2018-09-02T05:06:11.346Z,15.40
2018-09-02T05:08:39.636Z,15.40
2018-09-02T05:11:07.958Z,15.40
2018-09-02T05:13:36.283Z,15.40
2018-09-02T05:16:04.594Z,15.50
2018-09-02T05:18:32.918Z,15.50
2018-09-02T05:21:01.252Z,15.60
2018-09-02T05:23:29.562Z,15.60
2018-09-02T05:25:57.891Z,15.60
2018-09-02T05:28:26.203Z,15.70
2018-09-02T05:30:54.590Z,15.80
2018-09-02T05:33:22.918Z,15.80
2018-09-02T05:35:51.231Z,15.80
2018-09-02T05:38:19.552Z,15.90
2018-09-02T05:40:47.900Z,15.90
2018-09-02T05:43:16.219Z,16.00
2018-09-02T05:45:44.534Z,16.00
2018-09-02T05:48:12.866Z,16.00
2018-09-02T05:50:41.156Z,16.00
2018-09-02T05:53:09.525Z,16.10
2018-09-02T05:55:37.837Z,16.10
2018-09-02T05:58:06.157Z,16.10
2018-09-02T06:00:34.479Z,16.10
2018-09-02T06:03:02.815Z,16.10
2018-09-02T06:05:31.188Z,16.10
2018-09-02T06:07:59.540Z,16.10
2018-09-02T06:10:27.838Z,16.10
2018-09-02T06:12:56.167Z,16.10
2018-09-02T06:15:24.466Z,16.20
2018-09-02T06:17:52.768Z,16.20
2018-09-02T06:20:21.076Z,16.20
2018-09-02T06:22:49.483Z,16.20
2018-09-02T06:25:17.907Z,16.30
2018-09-02T06:27:46.225Z,16.30
2018-09-02T06:30:14.599Z,16.30
2018-09-02T06:32:42.922Z,16.40
2018-09-02T06:35:11.234Z,16.40
2018-09-02T06:37:39.614Z,16.50
2018-09-02T06:40:08.189Z,16.40
2018-09-02T06:42:36.496Z,16.50
2018-09-02T06:45:04.818Z,16.50
2018-09-02T06:47:33.115Z,16.60
2018-09-02T06:50:01.665Z,16.60
2018-09-02T06:52:29.990Z,16.80
2018-09-02T06:54:58.286Z,16.80
2018-09-02T06:57:26.627Z,16.80
2018-09-02T06:59:54.950Z,17.00
2018-09-02T07:02:23.255Z,17.00
2018-09-02T07:04:51.545Z,17.10
2018-09-02T07:07:19.945Z,17.20
2018-09-02T07:09:48.168Z,17.10
2018-09-02T07:12:16.479Z,17.20
2018-09-02T07:14:44.787Z,17.20
2018-09-02T07:17:13.108Z,17.20
2018-09-02T07:19:41.410Z,17.30
2018-09-02T07:22:09.811Z,17.30
2018-09-02T07:24:38.182Z,17.30
2018-09-02T07:27:06.541Z,17.30
2018-09-02T07:29:34.854Z,17.30
2018-09-02T07:32:03.180Z,17.30
2018-09-02T07:34:31.500Z,17.30
2018-09-02T07:36:59.848Z,17.30
2018-09-02T07:39:28.172Z,17.40
2018-09-02T07:41:56.534Z,17.30
2018-09-02T07:44:24.840Z,17.40
2018-09-02T07:46:53.135Z,17.40
2018-09-02T07:49:21.434Z,17.50
2018-09-02T07:51:49.825Z,17.50
2018-09-02T07:54:18.449Z,17.50
2018-09-02T07:56:46.787Z,17.60
2018-09-02T07:59:15.220Z,17.70
2018-09-02T08:01:43.558Z,17.70
2018-09-02T08:04:11.847Z,17.80
2018-09-02T08:06:40.147Z,17.80
2018-09-02T08:09:09.915Z,17.90
2018-09-02T08:11:38.220Z,17.90
2018-09-02T08:14:06.578Z,17.90
2018-09-02T08:16:34.883Z,18.00
2018-09-02T08:19:03.182Z,18.00
2018-09-02T08:21:31.574Z,18.10
2018-09-02T08:23:59.935Z,18.10
2018-09-02T08:26:28.392Z,18.20
2018-09-02T08:28:56.720Z,18.20
2018-09-02T08:31:25.090Z,18.20
2018-09-02T08:33:53.471Z,18.20
2018-09-02T08:36:21.819Z,18.20
2018-09-02T08:38:50.257Z,18.30
2018-09-02T08:41:18.584Z,18.20
2018-09-02T08:43:47.105Z,18.30
2018-09-02T08:46:15.442Z,18.30
2018-09-02T08:48:43.794Z,18.30
2018-09-02T08:51:12.128Z,18.40
2018-09-02T08:53:40.450Z,18.40
2018-09-02T08:56:08.814Z,18.40
2018-09-02T08:58:37.065Z,18.40
2018-09-02T09:01:05.489Z,18.40
2018-09-02T09:03:33.832Z,18.40
2018-09-02T09:06:02.363Z,18.40
2018-09-02T09:08:30.879Z,18.50
2018-09-02T09:11:00.311Z,18.50
2018-09-02T09:13:28.782Z,18.50
2018-09-02T09:15:57.090Z,18.60
2018-09-02T09:18:25.409Z,18.60
2018-09-02T09:20:53.847Z,18.60
2018-09-02T09:23:22.252Z,18.70
2018-09-02T09:25:50.693Z,18.70
2018-09-02T09:28:19.251Z,18.70
2018-09-02T09:30:47.752Z,18.70
2018-09-02T09:33:16.142Z,18.70
2018-09-02T09:35:44.459Z,18.80
2018-09-02T09:38:12.966Z,18.80
2018-09-02T09:40:41.394Z,18.90
2018-09-02T09:43:09.679Z,19.00
2018-09-02T09:45:38.024Z,19.00
2018-09-02T09:48:06.380Z,19.20
2018-09-02T09:50:34.847Z,19.10
2018-09-02T09:53:03.497Z,19.20
2018-09-02T09:55:31.908Z,19.30
2018-09-02T09:58:00.185Z,19.20
2018-09-02T10:00:33.419Z,19.20
2018-09-02T10:03:02.459Z,19.30
2018-09-02T10:05:30.783Z,19.30
2018-09-02T10:07:59.186Z,19.30
2018-09-02T10:10:27.591Z,19.30
2018-09-02T10:12:55.832Z,19.30
2018-09-02T10:15:24.183Z,19.30
2018-09-02T10:17:52.499Z,19.30
2018-09-02T10:20:20.811Z,19.30
2018-09-02T10:22:49.173Z,19.40
2018-09-02T10:25:17.532Z,19.40
2018-09-02T10:27:46.074Z,19.40
2018-09-02T10:30:14.400Z,19.40
2018-09-02T10:32:42.721Z,19.30
2018-09-02T10:35:11.047Z,19.40
2018-09-02T10:37:39.391Z,19.30
2018-09-02T10:40:07.747Z,19.40
2018-09-02T10:42:36.119Z,19.40
2018-09-02T10:45:04.486Z,19.40
2018-09-02T10:47:32.808Z,19.40
2018-09-02T10:50:04.809Z,19.50
2018-09-02T10:52:33.295Z,19.50
2018-09-02T10:55:01.648Z,19.50
2018-09-02T10:57:29.932Z,19.50
2018-09-02T10:59:58.261Z,19.60
2018-09-02T11:02:26.585Z,19.50
2018-09-02T11:04:55.089Z,19.60
2018-09-02T11:07:23.628Z,19.50
2018-09-02T11:09:51.968Z,19.50
2018-09-02T11:12:20.247Z,19.50
2018-09-02T11:14:48.627Z,19.50
2018-09-02T11:17:16.981Z,19.50
2018-09-02T11:19:45.624Z,19.50
2018-09-02T11:22:13.991Z,19.60
2018-09-02T11:24:42.325Z,19.60
2018-09-02T11:27:10.725Z,19.60
2018-09-02T11:29:39.141Z,19.60
2018-09-02T11:32:07.439Z,19.60
2018-09-02T11:34:35.736Z,19.60
2018-09-02T11:37:04.134Z,19.70
2018-09-02T11:39:32.475Z,19.70
2018-09-02T11:42:00.778Z,19.70
2018-09-02T11:44:29.108Z,19.70
2018-09-02T11:46:57.519Z,19.70
2018-09-02T11:49:25.795Z,19.70
2018-09-02T11:51:54.220Z,19.70
2018-09-02T11:54:22.590Z,19.70
2018-09-02T11:56:50.900Z,19.80
2018-09-02T11:59:19.244Z,19.70
2018-09-02T12:01:47.655Z,19.80
2018-09-02T12:04:15.960Z,19.80
2018-09-02T12:06:44.273Z,19.80
2018-09-02T12:09:12.580Z,19.80
2018-09-02T12:11:40.929Z,19.80
2018-09-02T12:14:09.436Z,19.90
2018-09-02T12:16:37.804Z,19.90
2018-09-02T12:19:06.161Z,20.10
2018-09-02T12:21:34.477Z,20.10
2018-09-02T12:24:09.886Z,20.20
2018-09-02T12:26:38.289Z,20.20
2018-09-02T12:29:06.626Z,20.30
2018-09-02T12:31:35.055Z,20.40
2018-09-02T12:34:03.362Z,20.40
2018-09-02T12:36:31.715Z,20.50
2018-09-02T12:39:00.045Z,20.50
2018-09-02T12:41:28.348Z,20.50
2018-09-02T12:43:56.640Z,20.60
2018-09-02T12:46:24.962Z,20.60
2018-09-02T12:48:53.519Z,20.60
2018-09-02T12:51:21.972Z,20.60
2018-09-02T12:53:50.337Z,20.60
2018-09-02T12:56:18.888Z,20.60
2018-09-02T12:58:47.027Z,20.60
2018-09-02T13:01:15.402Z,20.70
2018-09-02T13:03:43.707Z,20.70
2018-09-02T13:06:12.013Z,20.70
2018-09-02T13:08:40.352Z,20.70
2018-09-02T13:11:09.159Z,20.70
2018-09-02T13:13:37.472Z,20.70
2018-09-02T13:16:05.824Z,20.80
2018-09-02T13:18:34.139Z,20.80
2018-09-02T13:21:02.458Z,20.80
2018-09-02T13:23:30.847Z,20.80
2018-09-02T13:25:59.255Z,20.80
2018-09-02T13:28:27.632Z,20.80
2018-09-02T13:30:55.986Z,20.80
2018-09-02T13:33:24.339Z,20.80
2018-09-02T13:35:52.692Z,20.80
2018-09-02T13:38:20.999Z,20.80
2018-09-02T13:40:49.338Z,20.80
2018-09-02T13:43:18.750Z,20.80
2018-09-02T13:45:47.144Z,20.70
2018-09-02T13:48:15.503Z,20.80
2018-09-02T13:50:43.859Z,20.80
2018-09-02T13:53:12.176Z,20.80
2018-09-02T13:55:40.477Z,20.80
2018-09-02T13:58:08.787Z,20.80
2018-09-02T14:00:37.146Z,20.70
2018-09-02T14:03:05.881Z,20.70
2018-09-02T14:05:34.215Z,20.70
2018-09-02T14:08:02.664Z,20.70
2018-09-02T14:10:30.927Z,20.70
2018-09-02T14:12:59.254Z,20.70
2018-09-02T14:15:27.571Z,20.70
2018-09-02T14:17:55.970Z,20.70
2018-09-02T14:20:24.484Z,20.70
2018-09-02T14:22:52.931Z,20.70
2018-09-02T14:25:21.226Z,20.60
2018-09-02T14:27:49.575Z,20.60
2018-09-02T14:30:17.911Z,20.60
2018-09-02T14:32:46.352Z,20.70
2018-09-02T14:35:14.707Z,20.70
2018-09-02T14:37:43.044Z,20.60
2018-09-02T14:40:11.372Z,20.60
2018-09-02T14:42:39.813Z,20.60
2018-09-02T14:45:08.105Z,20.70
2018-09-02T14:47:36.433Z,20.60
2018-09-02T14:50:05.030Z,20.60
2018-09-02T14:52:33.470Z,20.60
2018-09-02T14:55:01.888Z,20.60
2018-09-02T14:57:30.410Z,20.50
2018-09-02T14:59:58.731Z,20.60
2018-09-02T15:02:27.104Z,20.60
2018-09-02T15:04:55.491Z,20.60
2018-09-02T15:07:25.004Z,20.60
2018-09-02T15:09:54.313Z,20.60
2018-09-02T15:12:23.648Z,20.60
2018-09-02T15:14:53.202Z,20.70
2018-09-02T15:17:22.428Z,20.70
2018-09-02T15:19:51.607Z,20.70
2018-09-02T15:22:19.985Z,20.70
2018-09-02T15:24:48.347Z,20.70
2018-09-02T15:27:16.885Z,20.70
2018-09-02T15:29:45.134Z,20.60
2018-09-02T15:32:13.493Z,20.70
2018-09-02T15:34:43.560Z,20.60
2018-09-02T15:37:13.164Z,20.50
2018-09-02T15:39:43.003Z,20.50
2018-09-02T15:42:13.306Z,20.50
2018-09-02T15:44:42.526Z,20.40
2018-09-02T15:47:10.899Z,20.40
2018-09-02T15:49:39.975Z,20.30
2018-09-02T15:52:08.329Z,20.30
2018-09-02T15:54:36.626Z,20.20
2018-09-02T15:57:05.011Z,20.20
2018-09-02T15:59:33.316Z,20.20
2018-09-02T16:02:01.980Z,20.20
2018-09-02T16:04:30.300Z,20.20
2018-09-02T16:06:58.677Z,20.20
2018-09-02T16:09:26.982Z,20.20
2018-09-02T16:11:55.379Z,20.10
2018-09-02T16:14:23.753Z,20.10
2018-09-02T16:16:52.195Z,20.10
2018-09-02T16:19:20.508Z,20.10
2018-09-02T16:21:48.896Z,20.10
2018-09-02T16:24:17.232Z,20.10
2018-09-02T16:26:45.592Z,20.10
2018-09-02T16:29:14.136Z,20.10
2018-09-02T16:31:42.404Z,20.10
2018-09-02T16:34:10.838Z,20.10
2018-09-02T16:36:39.379Z,20.10
2018-09-02T16:39:09.369Z,20.10
2018-09-02T16:41:37.824Z,20.00
2018-09-02T16:44:06.251Z,20.00
2018-09-02T16:46:34.691Z,19.90
2018-09-02T16:49:03.070Z,19.90
2018-09-02T16:51:31.407Z,19.90
2018-09-02T16:53:59.719Z,19.80
2018-09-02T16:56:28.057Z,19.90
2018-09-02T16:58:56.388Z,19.80
2018-09-02T17:01:24.698Z,19.90
2018-09-02T17:03:58.987Z,19.80
2018-09-02T17:06:27.292Z,19.80
2018-09-02T17:08:55.640Z,19.80
2018-09-02T17:11:23.932Z,19.70
2018-09-02T17:13:52.254Z,19.70
2018-09-02T17:16:20.576Z,19.70
2018-09-02T17:18:51.551Z,19.60
2018-09-02T17:21:20.644Z,19.60
2018-09-02T17:23:48.987Z,19.60
2018-09-02T17:26:17.309Z,19.60
2018-09-02T17:28:45.730Z,19.60
2018-09-02T17:31:14.059Z,19.60
2018-09-02T17:33:42.381Z,19.50
2018-09-02T17:36:10.739Z,19.50
2018-09-02T17:38:39.136Z,19.50
2018-09-02T17:41:07.434Z,19.50
2018-09-02T17:43:35.762Z,19.50
2018-09-02T17:46:04.132Z,19.40
2018-09-02T17:48:32.432Z,19.40
2018-09-02T17:51:00.755Z,19.40
2018-09-02T17:53:29.069Z,19.30
2018-09-02T17:55:57.584Z,19.30
2018-09-02T17:58:27.083Z,19.30
2018-09-02T18:00:56.987Z,19.30
2018-09-02T18:03:25.396Z,19.30
2018-09-02T18:05:53.816Z,19.30
2018-09-02T18:08:22.235Z,19.20
2018-09-02T18:10:50.559Z,19.30
2018-09-02T18:13:19.012Z,19.30
2018-09-02T18:15:47.348Z,19.30
2018-09-02T18:18:15.615Z,19.30
2018-09-02T18:20:43.931Z,19.20
2018-09-02T18:23:12.308Z,19.20
2018-09-02T18:25:40.710Z,19.20
2018-09-02T18:28:11.420Z,19.20
2018-09-02T18:30:39.699Z,19.10
2018-09-02T18:33:08.022Z,19.10
2018-09-02T18:35:36.692Z,19.10
2018-09-02T18:38:05.030Z,19.10
2018-09-02T18:40:33.361Z,19.10
2018-09-02T18:43:01.649Z,19.10
2018-09-02T18:45:30.063Z,19.00
2018-09-02T18:48:05.111Z,19.00
2018-09-02T18:50:33.422Z,19.00
2018-09-02T18:53:01.759Z,19.00
2018-09-02T18:55:30.087Z,19.00
2018-09-02T18:57:58.384Z,18.90
2018-09-02T19:00:26.717Z,18.90
2018-09-02T19:02:55.042Z,18.90
2018-09-02T19:05:23.348Z,18.90
2018-09-02T19:07:51.642Z,18.90
2018-09-02T19:10:20.041Z,18.80
2018-09-02T19:12:48.360Z,18.80
2018-09-02T19:15:16.731Z,18.80
2018-09-02T19:17:45.025Z,18.80
2018-09-02T19:20:13.389Z,18.80
2018-09-02T19:22:41.733Z,18.80
2018-09-02T19:25:10.143Z,18.80
2018-09-02T19:27:38.520Z,18.70
2018-09-02T19:30:07.068Z,18.70
2018-09-02T19:32:35.387Z,18.70
2018-09-02T19:35:03.767Z,18.70
2018-09-02T19:37:32.104Z,18.70
2018-09-02T19:40:00.761Z,18.70
2018-09-02T19:42:29.573Z,18.70
2018-09-02T19:44:57.934Z,18.70
2018-09-02T19:47:26.392Z,18.70
2018-09-02T19:49:54.676Z,18.60
2018-09-02T19:52:23.017Z,18.60
2018-09-02T19:54:51.471Z,18.60
2018-09-02T19:57:19.814Z,18.60
2018-09-02T19:59:48.287Z,18.50
2018-09-02T20:02:16.593Z,18.50
2018-09-02T20:04:44.923Z,18.50
2018-09-02T20:07:13.262Z,18.60
2018-09-02T20:09:41.558Z,18.50
2018-09-02T20:12:09.899Z,18.50
2018-09-02T20:14:38.212Z,18.50
2018-09-02T20:17:06.792Z,18.50
2018-09-02T20:19:35.124Z,18.50
2018-09-02T20:22:03.519Z,18.50
2018-09-02T20:24:31.836Z,18.40
2018-09-02T20:27:05.823Z,18.40
2018-09-02T20:29:34.141Z,18.40
2018-09-02T20:32:02.488Z,18.40
2018-09-02T20:34:30.805Z,18.40
2018-09-02T20:36:59.168Z,18.40
2018-09-02T20:39:27.619Z,18.40
2018-09-02T20:41:56.047Z,18.40
2018-09-02T20:44:24.407Z,18.30
2018-09-02T20:46:52.686Z,18.30
2018-09-02T20:49:21.120Z,18.30
2018-09-02T20:51:49.437Z,18.30
2018-09-02T20:54:17.803Z,18.30
2018-09-02T20:56:46.127Z,18.30
2018-09-02T20:59:14.530Z,18.30
2018-09-02T21:01:42.809Z,18.20
2018-09-02T21:04:11.270Z,18.30
2018-09-02T21:06:39.568Z,18.30
2018-09-02T21:09:11.386Z,18.30
2018-09-02T21:11:39.784Z,18.30
2018-09-02T21:14:08.424Z,18.30
2018-09-02T21:16:36.733Z,18.20
2018-09-02T21:19:05.440Z,18.20
2018-09-02T21:21:33.758Z,18.20
2018-09-02T21:24:02.519Z,18.20
2018-09-02T21:26:30.844Z,18.20
2018-09-02T21:28:59.191Z,18.20
2018-09-02T21:31:27.512Z,18.20
2018-09-02T21:33:56.058Z,18.20
2018-09-02T21:36:24.385Z,18.20
2018-09-02T21:38:52.838Z,18.20
2018-09-02T21:41:21.194Z,18.20
2018-09-02T21:43:49.520Z,18.20
2018-09-02T21:46:17.859Z,18.20
2018-09-02T21:48:46.201Z,18.20
2018-09-02T21:51:15.099Z,18.20
2018-09-02T21:53:43.436Z,18.20
2018-09-02T21:56:11.803Z,18.10
2018-09-02T21:58:40.499Z,18.20
2018-09-02T22:01:09.069Z,18.10
2018-09-02T22:03:37.387Z,18.10
2018-09-02T22:06:06.810Z,18.10
2018-09-02T22:08:36.447Z,18.10
2018-09-02T22:11:04.927Z,18.10
2018-09-02T22:13:33.299Z,18.10
2018-09-02T22:16:01.660Z,18.10
2018-09-02T22:18:29.955Z,18.20
2018-09-02T22:20:58.388Z,18.10
2018-09-02T22:23:26.714Z,18.10
2018-09-02T22:25:55.064Z,18.20
2018-09-02T22:28:23.385Z,18.20
2018-09-02T22:30:51.821Z,18.10
2018-09-02T22:33:20.219Z,18.20
2018-09-02T22:35:48.567Z,18.10
2018-09-02T22:38:16.891Z,18.10
2018-09-02T22:40:51.622Z,18.10
2018-09-02T22:43:19.956Z,18.20
2018-09-02T22:45:48.278Z,18.20
2018-09-02T22:48:16.643Z,18.20
2018-09-02T22:50:44.976Z,18.10
2018-09-02T22:53:13.462Z,18.10
2018-09-02T22:55:41.799Z,18.10
2018-09-02T22:58:10.086Z,18.10
2018-09-02T23:00:38.387Z,18.10
2018-09-02T23:03:06.934Z,18.10
2018-09-02T23:05:35.331Z,18.10
2018-09-02T23:08:03.647Z,18.10
2018-09-02T23:10:32.129Z,18.00
2018-09-02T23:13:00.451Z,18.10
2018-09-02T23:15:28.800Z,18.00
2018-09-02T23:17:57.083Z,18.00
2018-09-02T23:20:25.387Z,18.00
2018-09-02T23:22:53.793Z,18.00
2018-09-02T23:25:22.107Z,18.00
2018-09-02T23:27:50.408Z,18.00
2018-09-02T23:30:18.690Z,18.00
2018-09-02T23:32:47.022Z,18.00
2018-09-02T23:35:15.289Z,18.00
2018-09-02T23:37:43.637Z,18.00
2018-09-02T23:40:11.987Z,18.00
2018-09-02T23:42:40.284Z,18.00
2018-09-02T23:45:08.655Z,18.00
2018-09-02T23:47:36.969Z,18.00
2018-09-02T23:50:05.310Z,18.00
2018-09-02T23:52:33.593Z,18.00
2018-09-02T23:55:01.882Z,18.00
2018-09-02T23:57:30.212Z,18.00
2018-09-02T23:59:58.523Z,17.90
